sensor_id;sensor_type;location;lat;lon;timestamp;P1;durP1;ratioP1;P2;durP2;ratioP2
16775;SDS011;8505;49.456;8.164;2023-01-09T00:00:35;4.35;;;3.70;;
16775;SDS011;8505;49.456;8.164;2023-01-09T00:03:03;4.75;;;3.50;;
16775;SDS011;8505;49.456;8.164;2023-01-09T00:05:30;4.55;;;3.58;;
16775;SDS011;8505;49.456;8.164;2023-01-09T00:07:58;4.05;;;3.10;;
16775;SDS011;8505;49.456;8.164;2023-01-09T00:10:26;3.65;;;3.00;;
16775;SDS011;8505;49.456;8.164;2023-01-09T00:12:55;3.95;;;3.00;;
16775;SDS011;8505;49.456;8.164;2023-01-09T00:15:22;3.70;;;3.00;;
16775;SDS011;8505;49.456;8.164;2023-01-09T00:17:50;4.20;;;3.30;;
16775;SDS011;8505;49.456;8.164;2023-01-09T00:20:17;3.50;;;2.90;;
16775;SDS011;8505;49.456;8.164;2023-01-09T00:22:45;3.38;;;2.53;;
16775;SDS011;8505;49.456;8.164;2023-01-09T00:25:13;3.00;;;2.70;;
16775;SDS011;8505;49.456;8.164;2023-01-09T00:27:40;2.88;;;2.33;;
16775;SDS011;8505;49.456;8.164;2023-01-09T00:30:10;2.40;;;2.00;;
16775;SDS011;8505;49.456;8.164;2023-01-09T00:32:38;2.03;;;1.80;;
16775;SDS011;8505;49.456;8.164;2023-01-09T00:35:07;2.78;;;2.10;;
16775;SDS011;8505;49.456;8.164;2023-01-09T00:37:38;1.88;;;1.60;;
16775;SDS011;8505;49.456;8.164;2023-01-09T00:40:05;1.23;;;0.77;;
16775;SDS011;8505;49.456;8.164;2023-01-09T00:42:33;1.60;;;0.80;;
16775;SDS011;8505;49.456;8.164;2023-01-09T00:45:02;0.70;;;0.60;;
16775;SDS011;8505;49.456;8.164;2023-01-09T00:47:35;0.77;;;0.57;;
16775;SDS011;8505;49.456;8.164;2023-01-09T00:50:09;1.33;;;0.60;;
16775;SDS011;8505;49.456;8.164;2023-01-09T00:52:40;0.65;;;0.50;;
16775;SDS011;8505;49.456;8.164;2023-01-09T00:55:08;1.20;;;0.60;;
16775;SDS011;8505;49.456;8.164;2023-01-09T00:57:36;0.60;;;0.50;;
16775;SDS011;8505;49.456;8.164;2023-01-09T01:00:05;1.00;;;0.50;;
16775;SDS011;8505;49.456;8.164;2023-01-09T01:02:35;1.38;;;0.57;;
16775;SDS011;8505;49.456;8.164;2023-01-09T01:05:03;0.80;;;0.50;;
16775;SDS011;8505;49.456;8.164;2023-01-09T01:07:49;1.75;;;0.60;;
16775;SDS011;8505;49.456;8.164;2023-01-09T01:10:17;1.38;;;0.50;;
16775;SDS011;8505;49.456;8.164;2023-01-09T01:12:46;0.52;;;0.40;;
16775;SDS011;8505;49.456;8.164;2023-01-09T01:15:15;1.20;;;0.60;;
16775;SDS011;8505;49.456;8.164;2023-01-09T01:17:46;2.28;;;0.55;;
16775;SDS011;8505;49.456;8.164;2023-01-09T01:20:15;0.70;;;0.43;;
16775;SDS011;8505;49.456;8.164;2023-01-09T01:22:45;0.70;;;0.30;;
16775;SDS011;8505;49.456;8.164;2023-01-09T01:25:13;0.40;;;0.30;;
16775;SDS011;8505;49.456;8.164;2023-01-09T01:27:42;0.50;;;0.40;;
16775;SDS011;8505;49.456;8.164;2023-01-09T01:30:12;0.63;;;0.40;;
16775;SDS011;8505;49.456;8.164;2023-01-09T01:32:41;0.77;;;0.40;;
16775;SDS011;8505;49.456;8.164;2023-01-09T01:35:10;1.02;;;0.40;;
16775;SDS011;8505;49.456;8.164;2023-01-09T01:37:38;0.90;;;0.30;;
16775;SDS011;8505;49.456;8.164;2023-01-09T01:40:06;1.23;;;0.32;;
16775;SDS011;8505;49.456;8.164;2023-01-09T01:42:42;0.77;;;0.47;;
16775;SDS011;8505;49.456;8.164;2023-01-09T01:45:13;0.90;;;0.50;;
16775;SDS011;8505;49.456;8.164;2023-01-09T01:47:44;0.32;;;0.30;;
16775;SDS011;8505;49.456;8.164;2023-01-09T01:50:21;1.20;;;0.40;;
16775;SDS011;8505;49.456;8.164;2023-01-09T01:52:56;0.93;;;0.43;;
16775;SDS011;8505;49.456;8.164;2023-01-09T01:55:32;0.50;;;0.40;;
16775;SDS011;8505;49.456;8.164;2023-01-09T01:58:02;0.60;;;0.40;;
16775;SDS011;8505;49.456;8.164;2023-01-09T02:00:34;1.13;;;0.30;;
16775;SDS011;8505;49.456;8.164;2023-01-09T02:03:05;0.73;;;0.30;;
16775;SDS011;8505;49.456;8.164;2023-01-09T02:05:35;0.90;;;0.33;;
16775;SDS011;8505;49.456;8.164;2023-01-09T02:08:05;0.63;;;0.40;;
16775;SDS011;8505;49.456;8.164;2023-01-09T02:10:33;0.70;;;0.40;;
16775;SDS011;8505;49.456;8.164;2023-01-09T02:13:01;1.00;;;0.43;;
16775;SDS011;8505;49.456;8.164;2023-01-09T02:15:30;0.97;;;0.43;;
16775;SDS011;8505;49.456;8.164;2023-01-09T02:18:06;0.93;;;0.50;;
16775;SDS011;8505;49.456;8.164;2023-01-09T02:20:58;0.70;;;0.40;;
16775;SDS011;8505;49.456;8.164;2023-01-09T02:23:39;1.27;;;0.40;;
16775;SDS011;8505;49.456;8.164;2023-01-09T02:29:43;0.60;;;0.40;;
16775;SDS011;8505;49.456;8.164;2023-01-09T02:32:40;0.80;;;0.50;;
16775;SDS011;8505;49.456;8.164;2023-01-09T02:35:21;1.30;;;0.40;;
16775;SDS011;8505;49.456;8.164;2023-01-09T02:38:05;1.50;;;0.40;;
16775;SDS011;8505;49.456;8.164;2023-01-09T02:40:41;0.88;;;0.47;;
16775;SDS011;8505;49.456;8.164;2023-01-09T02:43:13;1.50;;;0.50;;
16775;SDS011;8505;49.456;8.164;2023-01-09T02:45:41;1.80;;;0.50;;
16775;SDS011;8505;49.456;8.164;2023-01-09T02:48:10;0.88;;;0.45;;
16775;SDS011;8505;49.456;8.164;2023-01-09T02:50:39;0.57;;;0.32;;
16775;SDS011;8505;49.456;8.164;2023-01-09T02:56:22;1.33;;;0.33;;
16775;SDS011;8505;49.456;8.164;2023-01-09T03:01:55;1.00;;;0.30;;
16775;SDS011;8505;49.456;8.164;2023-01-09T03:04:44;1.10;;;0.30;;
16775;SDS011;8505;49.456;8.164;2023-01-09T03:07:20;2.38;;;0.40;;
16775;SDS011;8505;49.456;8.164;2023-01-09T03:09:53;0.80;;;0.30;;
16775;SDS011;8505;49.456;8.164;2023-01-09T03:12:26;0.57;;;0.38;;
16775;SDS011;8505;49.456;8.164;2023-01-09T03:14:58;0.70;;;0.30;;
16775;SDS011;8505;49.456;8.164;2023-01-09T03:17:30;0.63;;;0.30;;
16775;SDS011;8505;49.456;8.164;2023-01-09T03:20:05;0.38;;;0.30;;
16775;SDS011;8505;49.456;8.164;2023-01-09T03:22:37;0.88;;;0.30;;
16775;SDS011;8505;49.456;8.164;2023-01-09T03:25:06;0.90;;;0.30;;
16775;SDS011;8505;49.456;8.164;2023-01-09T03:27:34;0.80;;;0.30;;
16775;SDS011;8505;49.456;8.164;2023-01-09T03:30:02;0.50;;;0.20;;
16775;SDS011;8505;49.456;8.164;2023-01-09T03:32:30;1.67;;;0.40;;
16775;SDS011;8505;49.456;8.164;2023-01-09T03:34:57;1.30;;;0.50;;
16775;SDS011;8505;49.456;8.164;2023-01-09T03:37:28;0.70;;;0.50;;
16775;SDS011;8505;49.456;8.164;2023-01-09T03:39:55;0.90;;;0.40;;
16775;SDS011;8505;49.456;8.164;2023-01-09T03:42:23;0.77;;;0.47;;
16775;SDS011;8505;49.456;8.164;2023-01-09T03:44:51;1.35;;;0.50;;
16775;SDS011;8505;49.456;8.164;2023-01-09T03:47:18;1.20;;;0.40;;
16775;SDS011;8505;49.456;8.164;2023-01-09T03:49:46;1.48;;;0.40;;
16775;SDS011;8505;49.456;8.164;2023-01-09T03:52:14;1.52;;;0.45;;
16775;SDS011;8505;49.456;8.164;2023-01-09T03:54:43;1.00;;;0.43;;
16775;SDS011;8505;49.456;8.164;2023-01-09T03:57:10;1.00;;;0.43;;
16775;SDS011;8505;49.456;8.164;2023-01-09T03:59:38;0.60;;;0.32;;
16775;SDS011;8505;49.456;8.164;2023-01-09T04:02:06;1.85;;;0.40;;
16775;SDS011;8505;49.456;8.164;2023-01-09T04:04:33;0.55;;;0.30;;
16775;SDS011;8505;49.456;8.164;2023-01-09T04:07:01;0.80;;;0.30;;
16775;SDS011;8505;49.456;8.164;2023-01-09T04:09:29;1.17;;;0.35;;
16775;SDS011;8505;49.456;8.164;2023-01-09T04:11:58;0.70;;;0.40;;
16775;SDS011;8505;49.456;8.164;2023-01-09T04:14:25;1.15;;;0.47;;
16775;SDS011;8505;49.456;8.164;2023-01-09T04:16:53;0.63;;;0.40;;
16775;SDS011;8505;49.456;8.164;2023-01-09T04:19:20;1.67;;;0.30;;
16775;SDS011;8505;49.456;8.164;2023-01-09T04:21:48;1.27;;;0.40;;
16775;SDS011;8505;49.456;8.164;2023-01-09T04:24:16;1.20;;;0.40;;
16775;SDS011;8505;49.456;8.164;2023-01-09T04:26:43;0.52;;;0.30;;
16775;SDS011;8505;49.456;8.164;2023-01-09T04:29:12;0.80;;;0.30;;
16775;SDS011;8505;49.456;8.164;2023-01-09T04:31:40;1.10;;;0.45;;
16775;SDS011;8505;49.456;8.164;2023-01-09T04:34:07;0.80;;;0.40;;
16775;SDS011;8505;49.456;8.164;2023-01-09T04:36:35;1.48;;;0.50;;
16775;SDS011;8505;49.456;8.164;2023-01-09T04:39:03;0.60;;;0.40;;
16775;SDS011;8505;49.456;8.164;2023-01-09T04:41:31;0.93;;;0.30;;
16775;SDS011;8505;49.456;8.164;2023-01-09T04:44:19;1.35;;;0.52;;
16775;SDS011;8505;49.456;8.164;2023-01-09T04:46:51;1.73;;;0.52;;
16775;SDS011;8505;49.456;8.164;2023-01-09T04:49:20;1.13;;;0.43;;
16775;SDS011;8505;49.456;8.164;2023-01-09T04:51:48;1.23;;;0.50;;
16775;SDS011;8505;49.456;8.164;2023-01-09T04:54:16;1.30;;;0.40;;
16775;SDS011;8505;49.456;8.164;2023-01-09T04:56:43;1.15;;;0.40;;
16775;SDS011;8505;49.456;8.164;2023-01-09T04:59:11;2.15;;;0.35;;
16775;SDS011;8505;49.456;8.164;2023-01-09T05:01:40;1.63;;;0.57;;
16775;SDS011;8505;49.456;8.164;2023-01-09T05:04:08;1.85;;;0.50;;
16775;SDS011;8505;49.456;8.164;2023-01-09T05:06:36;1.50;;;0.50;;
16775;SDS011;8505;49.456;8.164;2023-01-09T05:09:04;2.65;;;0.50;;
16775;SDS011;8505;49.456;8.164;2023-01-09T05:11:31;1.50;;;0.40;;
16775;SDS011;8505;49.456;8.164;2023-01-09T05:13:59;3.72;;;0.50;;
16775;SDS011;8505;49.456;8.164;2023-01-09T05:16:27;3.15;;;0.50;;
16775;SDS011;8505;49.456;8.164;2023-01-09T05:18:57;2.80;;;0.47;;
16775;SDS011;8505;49.456;8.164;2023-01-09T05:21:26;1.85;;;0.50;;
16775;SDS011;8505;49.456;8.164;2023-01-09T05:23:54;3.38;;;0.70;;
16775;SDS011;8505;49.456;8.164;2023-01-09T05:26:22;2.30;;;0.50;;
16775;SDS011;8505;49.456;8.164;2023-01-09T05:28:50;4.28;;;0.60;;
16775;SDS011;8505;49.456;8.164;2023-01-09T05:31:18;3.75;;;0.70;;
16775;SDS011;8505;49.456;8.164;2023-01-09T05:33:47;3.70;;;0.70;;
16775;SDS011;8505;49.456;8.164;2023-01-09T05:36:16;3.55;;;0.52;;
16775;SDS011;8505;49.456;8.164;2023-01-09T05:38:44;3.03;;;0.60;;
16775;SDS011;8505;49.456;8.164;2023-01-09T05:41:11;5.70;;;0.80;;
16775;SDS011;8505;49.456;8.164;2023-01-09T05:43:39;5.25;;;0.70;;
16775;SDS011;8505;49.456;8.164;2023-01-09T05:46:07;3.03;;;0.70;;
16775;SDS011;8505;49.456;8.164;2023-01-09T05:48:35;4.25;;;0.88;;
16775;SDS011;8505;49.456;8.164;2023-01-09T05:51:03;4.93;;;0.83;;
16775;SDS011;8505;49.456;8.164;2023-01-09T05:53:32;5.38;;;1.00;;
16775;SDS011;8505;49.456;8.164;2023-01-09T05:55:59;6.55;;;1.02;;
16775;SDS011;8505;49.456;8.164;2023-01-09T05:58:27;6.70;;;1.30;;
16775;SDS011;8505;49.456;8.164;2023-01-09T06:00:55;6.30;;;1.00;;
16775;SDS011;8505;49.456;8.164;2023-01-09T06:03:22;5.60;;;1.10;;
16775;SDS011;8505;49.456;8.164;2023-01-09T06:05:50;6.43;;;1.00;;
16775;SDS011;8505;49.456;8.164;2023-01-09T06:08:17;7.38;;;1.15;;
16775;SDS011;8505;49.456;8.164;2023-01-09T06:10:46;5.85;;;1.13;;
16775;SDS011;8505;49.456;8.164;2023-01-09T06:13:14;5.60;;;1.27;;
16775;SDS011;8505;49.456;8.164;2023-01-09T06:15:42;5.40;;;0.95;;
16775;SDS011;8505;49.456;8.164;2023-01-09T06:18:09;6.20;;;1.17;;
16775;SDS011;8505;49.456;8.164;2023-01-09T06:20:37;3.13;;;1.10;;
16775;SDS011;8505;49.456;8.164;2023-01-09T06:23:04;6.63;;;1.20;;
16775;SDS011;8505;49.456;8.164;2023-01-09T06:25:32;5.97;;;1.10;;
16775;SDS011;8505;49.456;8.164;2023-01-09T06:28:01;6.05;;;1.00;;
16775;SDS011;8505;49.456;8.164;2023-01-09T06:30:29;6.45;;;1.50;;
16775;SDS011;8505;49.456;8.164;2023-01-09T06:32:57;5.50;;;0.90;;
16775;SDS011;8505;49.456;8.164;2023-01-09T06:35:24;6.30;;;1.30;;
16775;SDS011;8505;49.456;8.164;2023-01-09T06:37:52;5.63;;;1.20;;
16775;SDS011;8505;49.456;8.164;2023-01-09T06:40:20;6.30;;;1.25;;
16775;SDS011;8505;49.456;8.164;2023-01-09T06:42:47;6.63;;;1.85;;
16775;SDS011;8505;49.456;8.164;2023-01-09T06:45:17;8.60;;;1.60;;
16775;SDS011;8505;49.456;8.164;2023-01-09T06:47:44;6.97;;;1.20;;
16775;SDS011;8505;49.456;8.164;2023-01-09T06:50:12;6.38;;;1.92;;
16775;SDS011;8505;49.456;8.164;2023-01-09T06:52:40;9.73;;;2.00;;
16775;SDS011;8505;49.456;8.164;2023-01-09T06:55:07;5.28;;;1.10;;
16775;SDS011;8505;49.456;8.164;2023-01-09T06:57:35;8.77;;;2.20;;
16775;SDS011;8505;49.456;8.164;2023-01-09T07:00:03;6.28;;;1.23;;
16775;SDS011;8505;49.456;8.164;2023-01-09T07:02:33;7.55;;;1.67;;
16775;SDS011;8505;49.456;8.164;2023-01-09T07:05:00;7.55;;;1.83;;
16775;SDS011;8505;49.456;8.164;2023-01-09T07:07:32;9.60;;;2.73;;
16775;SDS011;8505;49.456;8.164;2023-01-09T07:10:00;8.73;;;2.70;;
16775;SDS011;8505;49.456;8.164;2023-01-09T07:12:28;11.50;;;2.80;;
16775;SDS011;8505;49.456;8.164;2023-01-09T07:14:56;8.05;;;1.65;;
16775;SDS011;8505;49.456;8.164;2023-01-09T07:17:24;10.82;;;1.23;;
16775;SDS011;8505;49.456;8.164;2023-01-09T07:19:53;4.45;;;0.90;;
16775;SDS011;8505;49.456;8.164;2023-01-09T07:22:20;8.70;;;1.35;;
16775;SDS011;8505;49.456;8.164;2023-01-09T07:24:48;9.82;;;1.42;;
16775;SDS011;8505;49.456;8.164;2023-01-09T07:27:16;4.47;;;1.30;;
16775;SDS011;8505;49.456;8.164;2023-01-09T07:29:43;7.47;;;1.30;;
16775;SDS011;8505;49.456;8.164;2023-01-09T07:32:11;5.07;;;1.00;;
16775;SDS011;8505;49.456;8.164;2023-01-09T07:34:38;4.73;;;1.10;;
16775;SDS011;8505;49.456;8.164;2023-01-09T07:37:07;4.80;;;0.90;;
16775;SDS011;8505;49.456;8.164;2023-01-09T07:39:35;3.33;;;0.65;;
16775;SDS011;8505;49.456;8.164;2023-01-09T07:42:03;4.90;;;0.80;;
16775;SDS011;8505;49.456;8.164;2023-01-09T07:44:31;4.57;;;0.70;;
16775;SDS011;8505;49.456;8.164;2023-01-09T07:46:59;5.22;;;0.90;;
16775;SDS011;8505;49.456;8.164;2023-01-09T07:49:27;2.78;;;0.60;;
16775;SDS011;8505;49.456;8.164;2023-01-09T07:51:54;3.53;;;0.82;;
16775;SDS011;8505;49.456;8.164;2023-01-09T07:54:23;4.68;;;0.80;;
16775;SDS011;8505;49.456;8.164;2023-01-09T07:56:51;5.72;;;0.73;;
16775;SDS011;8505;49.456;8.164;2023-01-09T07:59:19;6.57;;;0.88;;
16775;SDS011;8505;49.456;8.164;2023-01-09T08:01:46;4.47;;;0.80;;
16775;SDS011;8505;49.456;8.164;2023-01-09T08:04:14;4.22;;;0.90;;
16775;SDS011;8505;49.456;8.164;2023-01-09T08:06:42;4.83;;;0.87;;
16775;SDS011;8505;49.456;8.164;2023-01-09T08:09:10;4.65;;;0.75;;
16775;SDS011;8505;49.456;8.164;2023-01-09T08:11:40;3.53;;;0.88;;
16775;SDS011;8505;49.456;8.164;2023-01-09T08:14:08;4.60;;;0.90;;
16775;SDS011;8505;49.456;8.164;2023-01-09T08:16:35;6.35;;;0.80;;
16775;SDS011;8505;49.456;8.164;2023-01-09T08:19:03;3.15;;;0.88;;
16775;SDS011;8505;49.456;8.164;2023-01-09T08:21:31;6.95;;;0.95;;
16775;SDS011;8505;49.456;8.164;2023-01-09T08:23:59;4.65;;;0.80;;
16775;SDS011;8505;49.456;8.164;2023-01-09T08:26:27;2.90;;;0.70;;
16775;SDS011;8505;49.456;8.164;2023-01-09T08:28:55;5.05;;;0.90;;
16775;SDS011;8505;49.456;8.164;2023-01-09T08:31:23;4.18;;;0.70;;
16775;SDS011;8505;49.456;8.164;2023-01-09T08:33:51;4.57;;;0.70;;
16775;SDS011;8505;49.456;8.164;2023-01-09T08:36:18;3.15;;;0.70;;
16775;SDS011;8505;49.456;8.164;2023-01-09T08:38:46;2.10;;;0.47;;
16775;SDS011;8505;49.456;8.164;2023-01-09T08:41:14;3.28;;;0.70;;
16775;SDS011;8505;49.456;8.164;2023-01-09T08:44:06;3.58;;;0.70;;
16775;SDS011;8505;49.456;8.164;2023-01-09T08:46:51;3.83;;;0.80;;
16775;SDS011;8505;49.456;8.164;2023-01-09T08:49:34;3.20;;;0.53;;
16775;SDS011;8505;49.456;8.164;2023-01-09T08:52:04;2.50;;;0.57;;
16775;SDS011;8505;49.456;8.164;2023-01-09T08:54:32;3.20;;;0.70;;
16775;SDS011;8505;49.456;8.164;2023-01-09T08:57:02;3.22;;;0.77;;
16775;SDS011;8505;49.456;8.164;2023-01-09T08:59:31;2.40;;;0.63;;
16775;SDS011;8505;49.456;8.164;2023-01-09T09:01:59;3.15;;;0.70;;
16775;SDS011;8505;49.456;8.164;2023-01-09T09:04:27;6.53;;;0.90;;
16775;SDS011;8505;49.456;8.164;2023-01-09T09:06:54;2.17;;;0.45;;
16775;SDS011;8505;49.456;8.164;2023-01-09T09:09:22;4.13;;;0.80;;
16775;SDS011;8505;49.456;8.164;2023-01-09T09:11:50;2.65;;;0.60;;
16775;SDS011;8505;49.456;8.164;2023-01-09T09:14:18;3.55;;;0.68;;
16775;SDS011;8505;49.456;8.164;2023-01-09T09:17:04;6.10;;;1.00;;
16775;SDS011;8505;49.456;8.164;2023-01-09T09:19:32;6.03;;;0.90;;
16775;SDS011;8505;49.456;8.164;2023-01-09T09:22:00;2.92;;;0.70;;
16775;SDS011;8505;49.456;8.164;2023-01-09T09:24:27;5.13;;;1.20;;
16775;SDS011;8505;49.456;8.164;2023-01-09T09:26:55;3.00;;;0.90;;
16775;SDS011;8505;49.456;8.164;2023-01-09T09:29:23;4.13;;;1.10;;
16775;SDS011;8505;49.456;8.164;2023-01-09T09:31:51;3.83;;;0.73;;
16775;SDS011;8505;49.456;8.164;2023-01-09T09:34:20;5.03;;;1.15;;
16775;SDS011;8505;49.456;8.164;2023-01-09T09:36:48;5.57;;;1.50;;
16775;SDS011;8505;49.456;8.164;2023-01-09T09:39:16;4.60;;;0.85;;
16775;SDS011;8505;49.456;8.164;2023-01-09T09:41:48;1.70;;;0.50;;
16775;SDS011;8505;49.456;8.164;2023-01-09T09:44:55;2.90;;;0.60;;
16775;SDS011;8505;49.456;8.164;2023-01-09T09:47:39;2.53;;;0.60;;
16775;SDS011;8505;49.456;8.164;2023-01-09T09:50:27;3.05;;;0.60;;
16775;SDS011;8505;49.456;8.164;2023-01-09T09:53:11;2.80;;;0.60;;
16775;SDS011;8505;49.456;8.164;2023-01-09T09:55:45;2.28;;;0.60;;
16775;SDS011;8505;49.456;8.164;2023-01-09T09:58:17;2.83;;;0.50;;
16775;SDS011;8505;49.456;8.164;2023-01-09T10:00:51;3.53;;;0.70;;
16775;SDS011;8505;49.456;8.164;2023-01-09T10:03:22;2.13;;;0.52;;
16775;SDS011;8505;49.456;8.164;2023-01-09T10:06:01;2.03;;;0.40;;
16775;SDS011;8505;49.456;8.164;2023-01-09T10:08:35;2.77;;;0.70;;
16775;SDS011;8505;49.456;8.164;2023-01-09T10:11:12;5.05;;;0.60;;
16775;SDS011;8505;49.456;8.164;2023-01-09T10:13:44;2.75;;;0.73;;
16775;SDS011;8505;49.456;8.164;2023-01-09T10:16:44;2.47;;;1.02;;
16775;SDS011;8505;49.456;8.164;2023-01-09T10:19:28;2.83;;;0.70;;
16775;SDS011;8505;49.456;8.164;2023-01-09T10:22:08;1.92;;;0.60;;
16775;SDS011;8505;49.456;8.164;2023-01-09T10:24:47;2.17;;;0.68;;
16775;SDS011;8505;49.456;8.164;2023-01-09T10:27:28;1.88;;;0.70;;
16775;SDS011;8505;49.456;8.164;2023-01-09T10:30:16;3.35;;;0.70;;
16775;SDS011;8505;49.456;8.164;2023-01-09T10:32:57;1.92;;;0.60;;
16775;SDS011;8505;49.456;8.164;2023-01-09T10:35:36;2.20;;;0.65;;
16775;SDS011;8505;49.456;8.164;2023-01-09T10:38:19;2.50;;;0.60;;
16775;SDS011;8505;49.456;8.164;2023-01-09T10:40:53;3.90;;;0.73;;
16775;SDS011;8505;49.456;8.164;2023-01-09T10:43:28;4.60;;;0.80;;
16775;SDS011;8505;49.456;8.164;2023-01-09T10:46:01;3.35;;;0.63;;
16775;SDS011;8505;49.456;8.164;2023-01-09T10:48:32;2.45;;;0.60;;
16775;SDS011;8505;49.456;8.164;2023-01-09T10:51:02;3.47;;;0.90;;
16775;SDS011;8505;49.456;8.164;2023-01-09T10:53:40;2.28;;;0.57;;
16775;SDS011;8505;49.456;8.164;2023-01-09T10:56:12;2.40;;;0.60;;
16775;SDS011;8505;49.456;8.164;2023-01-09T10:58:46;2.90;;;0.70;;
16775;SDS011;8505;49.456;8.164;2023-01-09T11:01:14;3.47;;;0.68;;
16775;SDS011;8505;49.456;8.164;2023-01-09T11:03:45;2.42;;;0.50;;
16775;SDS011;8505;49.456;8.164;2023-01-09T11:06:17;1.98;;;0.60;;
16775;SDS011;8505;49.456;8.164;2023-01-09T11:08:49;1.63;;;0.40;;
16775;SDS011;8505;49.456;8.164;2023-01-09T11:11:31;3.03;;;0.50;;
16775;SDS011;8505;49.456;8.164;2023-01-09T11:14:03;3.03;;;0.90;;
16775;SDS011;8505;49.456;8.164;2023-01-09T11:16:33;2.15;;;0.60;;
16775;SDS011;8505;49.456;8.164;2023-01-09T11:19:01;2.60;;;0.55;;
16775;SDS011;8505;49.456;8.164;2023-01-09T11:21:30;2.33;;;0.50;;
16775;SDS011;8505;49.456;8.164;2023-01-09T11:30:02;2.22;;;0.40;;
16775;SDS011;8505;49.456;8.164;2023-01-09T11:32:39;2.90;;;0.57;;
16775;SDS011;8505;49.456;8.164;2023-01-09T11:35:14;3.22;;;0.50;;
16775;SDS011;8505;49.456;8.164;2023-01-09T11:37:43;2.20;;;0.55;;
16775;SDS011;8505;49.456;8.164;2023-01-09T11:40:18;1.88;;;0.50;;
16775;SDS011;8505;49.456;8.164;2023-01-09T11:43:01;1.10;;;0.40;;
16775;SDS011;8505;49.456;8.164;2023-01-09T11:45:32;1.98;;;0.40;;
16775;SDS011;8505;49.456;8.164;2023-01-09T11:48:02;1.95;;;0.75;;
16775;SDS011;8505;49.456;8.164;2023-01-09T11:50:51;2.42;;;0.70;;
16775;SDS011;8505;49.456;8.164;2023-01-09T11:53:21;1.38;;;0.70;;
16775;SDS011;8505;49.456;8.164;2023-01-09T11:55:54;1.33;;;0.50;;
16775;SDS011;8505;49.456;8.164;2023-01-09T11:58:27;2.10;;;0.50;;
16775;SDS011;8505;49.456;8.164;2023-01-09T12:01:00;1.33;;;0.55;;
16775;SDS011;8505;49.456;8.164;2023-01-09T12:03:44;2.10;;;0.43;;
16775;SDS011;8505;49.456;8.164;2023-01-09T12:06:27;1.17;;;0.30;;
16775;SDS011;8505;49.456;8.164;2023-01-09T12:09:00;1.08;;;0.38;;
16775;SDS011;8505;49.456;8.164;2023-01-09T12:11:36;1.30;;;0.40;;
16775;SDS011;8505;49.456;8.164;2023-01-09T12:14:23;1.10;;;0.35;;
16775;SDS011;8505;49.456;8.164;2023-01-09T12:17:06;1.83;;;0.50;;
16775;SDS011;8505;49.456;8.164;2023-01-09T12:20:08;1.77;;;0.40;;
16775;SDS011;8505;49.456;8.164;2023-01-09T12:22:48;1.77;;;0.45;;
16775;SDS011;8505;49.456;8.164;2023-01-09T12:25:26;1.40;;;0.40;;
16775;SDS011;8505;49.456;8.164;2023-01-09T12:28:10;2.00;;;0.35;;
16775;SDS011;8505;49.456;8.164;2023-01-09T12:30:55;1.27;;;0.40;;
16775;SDS011;8505;49.456;8.164;2023-01-09T12:33:32;2.30;;;0.50;;
16775;SDS011;8505;49.456;8.164;2023-01-09T12:36:13;1.70;;;0.40;;
16775;SDS011;8505;49.456;8.164;2023-01-09T12:38:50;2.35;;;0.35;;
16775;SDS011;8505;49.456;8.164;2023-01-09T12:41:30;1.57;;;0.50;;
16775;SDS011;8505;49.456;8.164;2023-01-09T12:44:25;1.00;;;0.40;;
16775;SDS011;8505;49.456;8.164;2023-01-09T12:47:10;2.80;;;0.47;;
16775;SDS011;8505;49.456;8.164;2023-01-09T12:49:52;2.17;;;0.60;;
16775;SDS011;8505;49.456;8.164;2023-01-09T12:52:30;1.90;;;0.60;;
16775;SDS011;8505;49.456;8.164;2023-01-09T12:55:02;3.08;;;0.50;;
16775;SDS011;8505;49.456;8.164;2023-01-09T12:57:39;1.80;;;0.43;;
16775;SDS011;8505;49.456;8.164;2023-01-09T13:00:13;2.78;;;0.55;;
16775;SDS011;8505;49.456;8.164;2023-01-09T13:02:46;2.27;;;0.37;;
16775;SDS011;8505;49.456;8.164;2023-01-09T13:05:33;1.65;;;0.30;;
16775;SDS011;8505;49.456;8.164;2023-01-09T13:08:03;2.80;;;0.90;;
16775;SDS011;8505;49.456;8.164;2023-01-09T13:10:37;3.97;;;1.00;;
16775;SDS011;8505;49.456;8.164;2023-01-09T13:13:09;1.73;;;0.60;;
16775;SDS011;8505;49.456;8.164;2023-01-09T13:15:44;1.55;;;0.50;;
16775;SDS011;8505;49.456;8.164;2023-01-09T13:18:18;2.30;;;0.50;;
16775;SDS011;8505;49.456;8.164;2023-01-09T13:20:49;2.53;;;0.50;;
16775;SDS011;8505;49.456;8.164;2023-01-09T13:23:20;2.47;;;0.50;;
16775;SDS011;8505;49.456;8.164;2023-01-09T13:25:54;2.20;;;0.70;;
16775;SDS011;8505;49.456;8.164;2023-01-09T13:28:26;4.13;;;0.70;;
16775;SDS011;8505;49.456;8.164;2023-01-09T13:31:03;2.20;;;0.60;;
16775;SDS011;8505;49.456;8.164;2023-01-09T13:33:53;3.67;;;0.80;;
16775;SDS011;8505;49.456;8.164;2023-01-09T13:36:24;2.42;;;0.70;;
16775;SDS011;8505;49.456;8.164;2023-01-09T13:38:54;4.30;;;1.20;;
16775;SDS011;8505;49.456;8.164;2023-01-09T13:41:24;2.88;;;0.70;;
16775;SDS011;8505;49.456;8.164;2023-01-09T13:44:21;2.20;;;0.70;;
16775;SDS011;8505;49.456;8.164;2023-01-09T13:46:55;3.43;;;0.70;;
16775;SDS011;8505;49.456;8.164;2023-01-09T13:49:28;3.53;;;0.80;;
16775;SDS011;8505;49.456;8.164;2023-01-09T13:51:58;3.15;;;0.68;;
16775;SDS011;8505;49.456;8.164;2023-01-09T13:57:33;2.80;;;0.80;;
16775;SDS011;8505;49.456;8.164;2023-01-09T14:03:17;4.10;;;1.20;;
16775;SDS011;8505;49.456;8.164;2023-01-09T14:06:04;2.55;;;1.20;;
16775;SDS011;8505;49.456;8.164;2023-01-09T14:08:38;5.85;;;1.80;;
16775;SDS011;8505;49.456;8.164;2023-01-09T14:11:07;3.58;;;1.02;;
16775;SDS011;8505;49.456;8.164;2023-01-09T14:13:43;4.03;;;1.70;;
16775;SDS011;8505;49.456;8.164;2023-01-09T14:16:17;3.97;;;0.90;;
16775;SDS011;8505;49.456;8.164;2023-01-09T14:18:50;5.03;;;2.22;;
16775;SDS011;8505;49.456;8.164;2023-01-09T14:21:20;5.13;;;2.25;;
16775;SDS011;8505;49.456;8.164;2023-01-09T14:23:48;2.72;;;0.80;;
16775;SDS011;8505;49.456;8.164;2023-01-09T14:26:40;3.47;;;0.90;;
16775;SDS011;8505;49.456;8.164;2023-01-09T14:35:18;2.78;;;0.80;;
16775;SDS011;8505;49.456;8.164;2023-01-09T14:37:58;4.28;;;1.70;;
16775;SDS011;8505;49.456;8.164;2023-01-09T14:40:30;3.72;;;1.30;;
16775;SDS011;8505;49.456;8.164;2023-01-09T14:43:03;2.95;;;1.10;;
16775;SDS011;8505;49.456;8.164;2023-01-09T14:45:43;10.57;;;4.22;;
16775;SDS011;8505;49.456;8.164;2023-01-09T14:48:15;4.38;;;1.23;;
16775;SDS011;8505;49.456;8.164;2023-01-09T14:50:46;4.20;;;1.30;;
16775;SDS011;8505;49.456;8.164;2023-01-09T14:53:21;3.80;;;1.38;;
16775;SDS011;8505;49.456;8.164;2023-01-09T14:55:51;4.28;;;1.70;;
16775;SDS011;8505;49.456;8.164;2023-01-09T14:58:24;5.68;;;2.25;;
16775;SDS011;8505;49.456;8.164;2023-01-09T15:00:55;9.40;;;3.80;;
16775;SDS011;8505;49.456;8.164;2023-01-09T15:03:27;9.00;;;4.25;;
16775;SDS011;8505;49.456;8.164;2023-01-09T15:05:59;6.40;;;2.65;;
16775;SDS011;8505;49.456;8.164;2023-01-09T15:08:27;5.65;;;2.05;;
16775;SDS011;8505;49.456;8.164;2023-01-09T15:10:55;5.25;;;1.63;;
16775;SDS011;8505;49.456;8.164;2023-01-09T15:13:27;4.25;;;1.10;;
16775;SDS011;8505;49.456;8.164;2023-01-09T15:15:58;4.90;;;1.47;;
16775;SDS011;8505;49.456;8.164;2023-01-09T15:18:28;5.15;;;2.20;;
16775;SDS011;8505;49.456;8.164;2023-01-09T15:20:59;4.10;;;1.57;;
16775;SDS011;8505;49.456;8.164;2023-01-09T15:23:29;3.87;;;1.50;;
16775;SDS011;8505;49.456;8.164;2023-01-09T15:26:10;2.60;;;0.75;;
16775;SDS011;8505;49.456;8.164;2023-01-09T15:28:40;3.70;;;1.00;;
16775;SDS011;8505;49.456;8.164;2023-01-09T15:31:10;2.38;;;0.60;;
16775;SDS011;8505;49.456;8.164;2023-01-09T15:33:41;3.50;;;0.80;;
16775;SDS011;8505;49.456;8.164;2023-01-09T15:36:14;3.50;;;0.70;;
16775;SDS011;8505;49.456;8.164;2023-01-09T15:38:44;3.78;;;0.90;;
16775;SDS011;8505;49.456;8.164;2023-01-09T15:41:14;2.67;;;0.70;;
16775;SDS011;8505;49.456;8.164;2023-01-09T15:44:00;2.58;;;1.10;;
16775;SDS011;8505;49.456;8.164;2023-01-09T15:46:30;4.25;;;1.40;;
16775;SDS011;8505;49.456;8.164;2023-01-09T15:48:58;4.22;;;1.80;;
16775;SDS011;8505;49.456;8.164;2023-01-09T15:51:27;2.53;;;1.00;;
16775;SDS011;8505;49.456;8.164;2023-01-09T15:53:58;3.33;;;0.93;;
16775;SDS011;8505;49.456;8.164;2023-01-09T15:56:26;4.07;;;0.95;;